Time;durP1;ratioP1;P1;durP2;ratioP2;P2;SDS_P1;SDS_P2;PMS_P1;PMS_P2;Temp;Humidity;BMP_temperature;BMP_pressure;BME280_temperature;BME280_humidity;BME280_pressure;Samples;Min_cycle;Max_cycle;Signal;HPM_P1;HPM_P2
2022/02/25 00:00:00;;;;;;;;;;;;;;;;;;1014903;29;875;-28
2022/02/25 00:00:30;;;;;;;;;;;;;;;;;;1014447;29;971;-28
2022/02/25 00:01:01;;;;;;;;;;;;;;;;;;1014691;29;1597;-28
2022/02/25 00:01:31;;;;;;;;;;;;;;;;;;1014722;29;950;-29
2022/02/25 00:02:01;;;;;;;;;;;;;;;;;;1014908;29;871;-29
2022/02/25 00:02:32;;;;;;;;;;;;;;;;;;1015054;29;875;-29
2022/02/25 00:03:03;;;;;;;;;;;;;;;;;;1014344;29;1028;-28
2022/02/25 00:03:33;;;;;;;;;;;;;;;;;;1015123;29;1110;-29
2022/02/25 00:04:04;;;;;;;;;;;;;;;;;;1015043;29;929;-29
2022/02/25 00:04:34;;;;;;;;;;;;;;;;;;1014859;29;1923;-28
2022/02/25 00:05:05;;;;;;;;;;;;;;;;;;1015095;29;917;-28
2022/02/25 00:05:35;;;;;;;;;;;;;;;;;;1014903;29;1010;-29
2022/02/25 00:06:06;;;;;;;;;;;;;;;;;;1015064;29;904;-28
2022/02/25 00:06:36;;;;;;;;;;;;;;;;;;1014870;29;876;-28
2022/02/25 00:07:07;;;;;;;;;;;;;;;;;;1015131;29;943;-28
2022/02/25 00:07:37;;;;;;;;;;;;;;;;;;1014708;29;1406;-29
2022/02/25 00:08:08;;;;;;;;;;;;;;;;;;1015204;29;907;-28
2022/02/25 00:08:38;;;;;;;;;;;;;;;;;;1014819;29;935;-28
2022/02/25 00:09:09;;;;;;;;;;;;;;;;;;1014986;29;1001;-28
2022/02/25 00:09:39;;;;;;;;;;;;;;;;;;1015075;29;963;-28
2022/02/25 00:10:10;;;;;;;;;;;;;;;;;;1014663;29;820;-29
2022/02/25 00:10:40;;;;;;;;;;;;;;;;;;1014722;29;1091;-28
2022/02/25 00:11:11;;;;;;;;;;;;;;;;;;1014707;29;1281;-29
2022/02/25 00:11:42;;;;;;;;;;;;;;;;;;1015208;29;1045;-28
2022/02/25 00:12:12;;;;;;;;;;;;;;;;;;1014848;29;950;-29
2022/02/25 00:12:43;;;;;;;;;;;;;;;;;;1014992;29;851;-28
2022/02/25 00:13:13;;;;;;;;;;;;;;;;;;1015012;29;1070;-28
2022/02/25 00:13:44;;;;;;;;;;;;;;;;;;1014816;29;796;-28
2022/02/25 00:14:14;;;;;;;;;;;;;;;;;;1015020;29;1099;-28
2022/02/25 00:14:45;;;;;;;;;;;;;;;;;;1014880;29;851;-28
2022/02/25 00:15:15;;;;;;;;;;;;;;;;;;1015001;29;1057;-28
2022/02/25 00:15:46;;;;;;;;;;;;;;;;;;1014819;29;931;-28
2022/02/25 00:16:16;;;;;;;;;;;;;;;;;;1015053;29;899;-28
2022/02/25 00:16:49;;;;;;;;;;;;;;;;;;1014896;29;873;-28
2022/02/25 00:17:19;;;;;;;;;;;;;;;;;;1014986;29;1026;-28
2022/02/25 00:17:49;;;;;;;;;;;;;;;;;;1014291;29;896;-29
2022/02/25 00:18:19;;;;;;;;;;;;;;;;;;1014992;29;930;-28
2022/02/25 00:18:50;;;;;;;;;;;;;;;;;;1014972;29;986;-28
2022/02/25 00:19:20;;;;;;;;;;;;;;;;;;1014897;29;851;-28
2022/02/25 00:19:50;;;;;;;;;;;;;;;;;;1015113;29;1063;-28
2022/02/25 00:20:21;;;;;;;;;;;;;;;;;;1014819;29;892;-28
2022/02/25 00:20:51;;;;;;;;;;;;;;;;;;1015089;29;963;-28
2022/02/25 00:21:22;;;;;;;;;;;;;;;;;;1014931;29;973;-28
2022/02/25 00:21:52;;;;;;;;;;;;;;;;;;1014798;29;954;-28
2022/02/25 00:22:22;;;;;;;;;;;;;;;;;;1015180;29;850;-29
2022/02/25 00:22:53;;;;;;;;;;;;;;;;;;1014807;29;916;-28
2022/02/25 00:23:23;;;;;;;;;;;;;;;;;;1015147;29;904;-28
2022/02/25 00:23:53;;;;;;;;;;;;;;;;;;1014626;29;974;-28
2022/02/25 00:24:24;;;;;;;;;;;;;;;;;;1015161;29;949;-28
2022/02/25 00:24:54;;;;;;;;;;;;;;;;;;1014856;29;1043;-28
2022/02/25 00:25:24;;;;;;;;;;;;;;;;;;1014528;29;884;-28
2022/02/25 00:25:55;;;;;;;;;;;;;;;;;;1014858;29;916;-28
2022/02/25 00:26:26;;;;;;;;;;;;;;;;;;1015017;29;919;-28
2022/02/25 00:26:56;;;;;;;;;;;;;;;;;;1014860;29;918;-28
2022/02/25 00:27:26;;;;;;;;;;;;;;;;;;1014762;29;1006;-28
2022/02/25 00:27:57;;;;;;;;;;;;;;;;;;1014980;29;1062;-28
2022/02/25 00:28:27;;;;;;;;;;;;;;;;;;1014221;29;917;-28
2022/02/25 00:28:58;;;;;;;;;;;;;;;;;;1014862;29;933;-28
2022/02/25 00:29:29;;;;;;;;;;;;;;;;;;1014281;29;1468;-28
2022/02/25 00:29:59;;;;;;;;;;;;;;;;;;1014656;29;817;-28
2022/02/25 00:30:29;;;;;;;;;;;;;;;;;;1014644;29;909;-28
2022/02/25 00:31:00;;;;;;;;;;;;;;;;;;1014368;29;1658;-28
2022/02/25 00:31:31;;;;;;;;;;;;;;;;;;1015071;29;1007;-29
2022/02/25 00:32:01;;;;;;;;;;;;;;;;;;1014892;29;957;-28
2022/02/25 00:32:31;;;;;;;;;;;;;;;;;;1014409;29;1068;-28
2022/02/25 00:33:02;;;;;;;;;;;;;;;;;;1014799;29;1013;-28
2022/02/25 00:33:32;;;;;;;;;;;;;;;;;;1014965;29;943;-28
2022/02/25 00:34:02;;;;;;;;;;;;;;;;;;1014963;29;956;-28
2022/02/25 00:34:33;;;;;;;;;;;;;;;;;;1014941;29;840;-28
2022/02/25 00:35:03;;;;;;;;;;;;;;;;;;1014934;29;1126;-29
2022/02/25 00:35:34;;;;;;;;;;;;;;;;;;1014881;29;998;-28
2022/02/25 00:36:04;;;;;;;;;;;;;;;;;;1014893;29;967;-28
2022/02/25 00:36:34;;;;;;;;;;;;;;;;;;1014777;29;921;-28
2022/02/25 00:37:05;;;;;;;;;;;;;;;;;;1015258;29;820;-28
2022/02/25 00:37:36;;;;;;;;;;;;;;;;;;1014558;29;864;-28
2022/02/25 00:38:06;;;;;;;;;;;;;;;;;;1014988;29;864;-28
2022/02/25 00:38:36;;;;;;;;;;;;;;;;;;1014901;29;991;-28
2022/02/25 00:39:07;;;;;;;;;;;;;;;;;;1014796;29;1010;-28
2022/02/25 00:39:37;;;;;;;;;;;;;;;;;;1014741;29;1350;-28
2022/02/25 00:40:09;;;;;;;;;;;;;;;;;;1013680;29;852;-28
2022/02/25 00:40:39;;;;;;;;;;;;;;;;;;1014809;29;968;-28
2022/02/25 00:41:10;;;;;;;;;;;;;;;;;;1014427;29;901;-28
2022/02/25 00:41:40;;;;;;;;;;;;;;;;;;1014672;29;853;-29
2022/02/25 00:42:12;;;;;;;;;;;;;;;;;;1014539;29;1024;-28
2022/02/25 00:42:43;;;;;;;;;;;;;;;;;;1014804;29;895;-28
2022/02/25 00:43:13;;;;;;;;;;;;;;;;;;1015052;29;1018;-29
2022/02/25 00:43:44;;;;;;;;;;;;;;;;;;1014888;29;833;-28
2022/02/25 00:44:14;;;;;;;;;;;;;;;;;;1014922;29;944;-28
2022/02/25 00:44:44;;;;;;;;;;;;;;;;;;1014684;29;1907;-28
2022/02/25 00:45:15;;;;;;;;;;;;;;;;;;1015173;29;1405;-28
2022/02/25 00:45:45;;;;;;;;;;;;;;;;;;1014783;29;967;-28
2022/02/25 00:46:16;;;;;;;;;;;;;;;;;;1014966;29;861;-28
2022/02/25 00:46:46;;;;;;;;;;;;;;;;;;1014829;29;982;-28
2022/02/25 00:47:17;;;;;;;;;;;;;;;;;;1014438;29;907;-29
2022/02/25 00:47:47;;;;;;;;;;;;;;;;;;1014769;29;916;-29
2022/02/25 00:48:17;;;;;;;;;;;;;;;;;;1014835;29;896;-29
2022/02/25 00:48:49;;;;;;;;;;;;;;;;;;1015034;29;1286;-28
2022/02/25 00:49:20;;;;;;;;;;;;;;;;;;1014803;29;907;-29
2022/02/25 00:49:50;;;;;;;;;;;;;;;;;;1014607;29;939;-29
2022/02/25 00:50:20;;;;;;;;;;;;;;;;;;1014603;29;903;-28
2022/02/25 00:50:51;;;;;;;;;;;;;;;;;;1014404;29;777;-28
2022/02/25 00:51:21;;;;;;;;;;;;;;;;;;1014812;29;956;-29
2022/02/25 00:51:51;;;;;;;;;;;;;;;;;;1014655;29;957;-28
2022/02/25 00:52:22;;;;;;;;;;;;;;;;;;1015123;29;1077;-28
2022/02/25 00:52:52;;;;;;;;;;;;;;;;;;1014658;29;804;-28
2022/02/25 00:53:23;;;;;;;;;;;;;;;;;;1014696;29;938;-27
2022/02/25 00:53:53;;;;;;;;;;;;;;;;;;1014269;29;1006;-27
2022/02/25 00:54:23;;;;;;;;;;;;;;;;;;1014766;29;825;-27
2022/02/25 00:54:53;;;;;;;;;;;;;;;;;;1013739;29;1001;-27
2022/02/25 00:55:24;;;;;;;;;;;;;;;;;;1015010;29;995;-27
2022/02/25 00:55:55;;;;;;;;;;;;;;;;;;1014760;29;1022;-28
2022/02/25 00:56:25;;;;;;;;;;;;;;;;;;1014982;29;797;-27
2022/02/25 00:56:56;;;;;;;;;;;;;;;;;;1014846;29;944;-27
2022/02/25 00:57:26;;;;;;;;;;;;;;;;;;1014651;29;936;-27
2022/02/25 00:57:57;;;;;;;;;;;;;;;;;;1015034;29;788;-27
2022/02/25 00:58:28;;;;;;;;;;;;;;;;;;1014716;29;1824;-27
2022/02/25 00:58:58;;;;;;;;;;;;;;;;;;1014908;29;827;-27
2022/02/25 00:59:28;;;;;;;;;;;;;;;;;;1015010;29;924;-28
2022/02/25 00:59:59;;;;;;;;;;;;;;;;;;1014740;29;828;-27
2022/02/25 01:00:29;;;;;;;;;;;;;;;;;;1015021;29;988;-27
2022/02/25 01:00:59;;;;;;;;;;;;;;;;;;1014617;29;943;-27
2022/02/25 01:01:30;;;;;;;;;;;;;;;;;;1015017;29;1011;-27
2022/02/25 01:02:00;;;;;;;;;;;;;;;;;;1014331;29;857;-28
2022/02/25 01:02:30;;;;;;;;;;;;;;;;;;1014847;29;1501;-29
2022/02/25 01:03:01;;;;;;;;;;;;;;;;;;1014316;29;982;-28
2022/02/25 01:03:31;;;;;;;;;;;;;;;;;;1014633;29;1014;-28
2022/02/25 01:04:02;;;;;;;;;;;;;;;;;;1014426;29;954;-28
2022/02/25 01:04:32;;;;;;;;;;;;;;;;;;1014410;29;1907;-28
2022/02/25 01:05:03;;;;;;;;;;;;;;;;;;1014974;29;867;-28
2022/02/25 01:05:33;;;;;;;;;;;;;;;;;;1014771;29;796;-28
2022/02/25 01:06:04;;;;;;;;;;;;;;;;;;1014925;29;982;-28
2022/02/25 01:06:34;;;;;;;;;;;;;;;;;;1014726;29;908;-28
2022/02/25 01:07:05;;;;;;;;;;;;;;;;;;1015058;29;828;-28
2022/02/25 01:07:36;;;;;;;;;;;;;;;;;;1014260;29;1167;-28
2022/02/25 01:08:07;;;;;;;;;;;;;;;;;;1014449;29;964;-28
2022/02/25 01:08:38;;;;;;;;;;;;;;;;;;1014783;29;1067;-28
2022/02/25 01:09:08;;;;;;;;;;;;;;;;;;1014330;29;912;-28
2022/02/25 01:09:39;;;;;;;;;;;;;;;;;;1014478;29;1180;-28
2022/02/25 01:10:11;;;;;;;;;;;;;;;;;;1014633;29;959;-28
2022/02/25 01:10:41;;;;;;;;;;;;;;;;;;1015051;29;1290;-28
2022/02/25 01:11:11;;;;;;;;;;;;;;;;;;1014758;29;907;-28
2022/02/25 01:11:42;;;;;;;;;;;;;;;;;;1014889;29;899;-28
2022/02/25 01:12:12;;;;;;;;;;;;;;;;;;1014480;29;983;-28
2022/02/25 01:12:43;;;;;;;;;;;;;;;;;;1014521;29;804;-28
2022/02/25 01:13:14;;;;;;;;;;;;;;;;;;1014530;29;984;-28
2022/02/25 01:13:44;;;;;;;;;;;;;;;;;;1014409;29;878;-28
2022/02/25 01:14:14;;;;;;;;;;;;;;;;;;1014934;29;1151;-28
2022/02/25 01:14:45;;;;;;;;;;;;;;;;;;1014804;29;954;-28
2022/02/25 01:15:15;;;;;;;;;;;;;;;;;;1015014;29;898;-28
2022/02/25 01:15:46;;;;;;;;;;;;;;;;;;1014860;29;912;-28
2022/02/25 01:16:16;;;;;;;;;;;;;;;;;;1014828;29;816;-28
2022/02/25 01:16:47;;;;;;;;;;;;;;;;;;1014799;29;982;-28
2022/02/25 01:17:17;;;;;;;;;;;;;;;;;;1014357;29;898;-27
2022/02/25 01:17:47;;;;;;;;;;;;;;;;;;1014900;29;994;-28
2022/02/25 01:18:17;;;;;;;;;;;;;;;;;;1014669;29;954;-28
2022/02/25 01:18:48;;;;;;;;;;;;;;;;;;1015040;29;856;-28
2022/02/25 01:19:18;;;;;;;;;;;;;;;;;;1014811;29;974;-28
2022/02/25 01:19:49;;;;;;;;;;;;;;;;;;1014818;29;874;-28
2022/02/25 01:20:19;;;;;;;;;;;;;;;;;;1015039;29;919;-28
2022/02/25 01:20:50;;;;;;;;;;;;;;;;;;1014802;29;902;-28
2022/02/25 01:21:20;;;;;;;;;;;;;;;;;;1014993;29;893;-28
2022/02/25 01:21:50;;;;;;;;;;;;;;;;;;1014769;29;824;-27
2022/02/25 01:22:21;;;;;;;;;;;;;;;;;;1014892;29;888;-27
2022/02/25 01:22:51;;;;;;;;;;;;;;;;;;1014730;29;938;-27
2022/02/25 01:23:21;;;;;;;;;;;;;;;;;;1015083;29;844;-27
2022/02/25 01:23:52;;;;;;;;;;;;;;;;;;1014686;29;955;-27
2022/02/25 01:24:22;;;;;;;;;;;;;;;;;;1014364;29;820;-27
2022/02/25 01:24:52;;;;;;;;;;;;;;;;;;1014811;29;1972;-27
2022/02/25 01:25:23;;;;;;;;;;;;;;;;;;1014818;29;915;-28
2022/02/25 01:25:53;;;;;;;;;;;;;;;;;;1015277;29;928;-27
2022/02/25 01:26:24;;;;;;;;;;;;;;;;;;1015287;29;729;-27
2022/02/25 01:26:54;;;;;;;;;;;;;;;;;;1015728;29;1005;-27
2022/02/25 01:27:25;;;;;;;;;;;;;;;;;;1015350;29;909;-27
2022/02/25 01:27:55;;;;;;;;;;;;;;;;;;1015512;29;1066;-27
2022/02/25 01:28:25;;;;;;;;;;;;;;;;;;1015605;29;1165;-27
2022/02/25 01:28:56;;;;;;;;;;;;;;;;;;1015422;29;939;-27
2022/02/25 01:29:26;;;;;;;;;;;;;;;;;;1015687;29;996;-27
2022/02/25 01:29:56;;;;;;;;;;;;;;;;;;1015109;29;974;-27
2022/02/25 01:30:27;;;;;;;;;;;;;;;;;;1015063;29;912;-27
2022/02/25 01:30:57;;;;;;;;;;;;;;;;;;1015062;29;985;-27
2022/02/25 01:31:27;;;;;;;;;;;;;;;;;;1015279;29;963;-27
2022/02/25 01:31:58;;;;;;;;;;;;;;;;;;1014928;29;1073;-27
2022/02/25 01:32:29;;;;;;;;;;;;;;;;;;1015529;29;875;-27
2022/02/25 01:33:00;;;;;;;;;;;;;;;;;;1015572;29;966;-27
2022/02/25 01:33:30;;;;;;;;;;;;;;;;;;1015489;29;788;-27
2022/02/25 01:34:01;;;;;;;;;;;;;;;;;;1015723;29;1063;-27
2022/02/25 01:34:31;;;;;;;;;;;;;;;;;;1015321;29;796;-27
2022/02/25 01:35:02;;;;;;;;;;;;;;;;;;1015684;29;1103;-27
2022/02/25 01:35:35;;;;;;;;;;;;;;;;;;1015264;29;1007;-27
2022/02/25 01:36:05;;;;;;;;;;;;;;;;;;1015720;29;931;-27
2022/02/25 01:36:36;;;;;;;;;;;;;;;;;;1015354;29;949;-28
2022/02/25 01:37:06;;;;;;;;;;;;;;;;;;1015527;29;967;-27
2022/02/25 01:37:36;;;;;;;;;;;;;;;;;;1015569;29;837;-27
2022/02/25 01:38:07;;;;;;;;;;;;;;;;;;1015360;29;805;-28
2022/02/25 01:38:37;;;;;;;;;;;;;;;;;;1015696;29;963;-27
2022/02/25 01:39:07;;;;;;;;;;;;;;;;;;1014652;29;939;-28
2022/02/25 01:39:38;;;;;;;;;;;;;;;;;;1015691;29;832;-27
2022/02/25 01:40:08;;;;;;;;;;;;;;;;;;1015345;29;955;-27
2022/02/25 01:40:38;;;;;;;;;;;;;;;;;;1015630;29;828;-28
2022/02/25 01:41:09;;;;;;;;;;;;;;;;;;1015334;29;1801;-27
2022/02/25 01:41:39;;;;;;;;;;;;;;;;;;1015492;29;1005;-28
2022/02/25 01:42:09;;;;;;;;;;;;;;;;;;1015524;29;1063;-28
2022/02/25 01:42:44;;;;;;;;;;;;;;;;;;1015410;29;950;-28
2022/02/25 01:43:14;;;;;;;;;;;;;;;;;;1015630;29;982;-28
2022/02/25 01:43:45;;;;;;;;;;;;;;;;;;1015347;29;1094;-27
2022/02/25 01:44:19;;;;;;;;;;;;;;;;;;1015602;29;911;-28
2022/02/25 01:44:50;;;;;;;;;;;;;;;;;;1015350;29;1974;-28
2022/02/25 01:45:20;;;;;;;;;;;;;;;;;;1015420;29;887;-28
2022/02/25 01:45:51;;;;;;;;;;;;;;;;;;1015576;29;1074;-28
2022/02/25 01:46:22;;;;;;;;;;;;;;;;;;1015083;29;855;-28
2022/02/25 01:46:55;;;;;;;;;;;;;;;;;;1015247;29;974;-28
2022/02/25 01:47:25;;;;;;;;;;;;;;;;;;1015158;29;943;-28
2022/02/25 01:47:55;;;;;;;;;;;;;;;;;;1015521;29;860;-28
2022/02/25 01:48:26;;;;;;;;;;;;;;;;;;1015636;29;888;-28
2022/02/25 01:48:56;;;;;;;;;;;;;;;;;;1015262;29;859;-28
2022/02/25 01:49:27;;;;;;;;;;;;;;;;;;1015505;29;976;-28
2022/02/25 01:49:58;;;;;;;;;;;;;;;;;;1015444;29;864;-28
2022/02/25 01:50:28;;;;;;;;;;;;;;;;;;1015498;29;1108;-28
2022/02/25 01:50:58;;;;;;;;;;;;;;;;;;1015388;29;977;-28
2022/02/25 01:51:29;;;;;;;;;;;;;;;;;;1014974;29;1243;-28
2022/02/25 01:52:00;;;;;;;;;;;;;;;;;;1015164;29;865;-28
2022/02/25 01:52:31;;;;;;;;;;;;;;;;;;1015031;29;990;-28
2022/02/25 01:53:04;;;;;;;;;;;;;;;;;;1015329;29;1369;-28
2022/02/25 01:53:35;;;;;;;;;;;;;;;;;;1015312;29;835;-28
2022/02/25 01:54:05;;;;;;;;;;;;;;;;;;1014932;29;952;-28
2022/02/25 01:54:36;;;;;;;;;;;;;;;;;;1015243;29;948;-28
2022/02/25 01:55:06;;;;;;;;;;;;;;;;;;1015621;29;1025;-28
2022/02/25 01:55:39;;;;;;;;;;;;;;;;;;1015421;29;999;-28
2022/02/25 01:56:09;;;;;;;;;;;;;;;;;;1015417;29;864;-28
2022/02/25 01:56:41;;;;;;;;;;;;;;;;;;1015510;29;1006;-28
2022/02/25 01:57:12;;;;;;;;;;;;;;;;;;1015401;29;927;-28
2022/02/25 01:57:42;;;;;;;;;;;;;;;;;;1015423;29;1110;-28
2022/02/25 01:58:14;;;;;;;;;;;;;;;;;;1015191;29;899;-28
2022/02/25 01:58:44;;;;;;;;;;;;;;;;;;1015688;29;808;-28
2022/02/25 01:59:15;;;;;;;;;;;;;;;;;;1015385;29;931;-28
2022/02/25 01:59:46;;;;;;;;;;;;;;;;;;1015438;29;801;-28
2022/02/25 02:00:16;;;;;;;;;;;;;;;;;;1015736;29;825;-28
2022/02/25 02:00:47;;;;;;;;;;;;;;;;;;1015257;29;887;-28
2022/02/25 02:01:17;;;;;;;;;;;;;;;;;;1015148;29;929;-28
2022/02/25 02:01:48;;;;;;;;;;;;;;;;;;1015048;29;951;-28
2022/02/25 02:02:18;;;;;;;;;;;;;;;;;;1015749;29;832;-28
2022/02/25 02:02:49;;;;;;;;;;;;;;;;;;1015243;29;974;-28
2022/02/25 02:03:20;;;;;;;;;;;;;;;;;;1015374;29;931;-28
2022/02/25 02:03:51;;;;;;;;;;;;;;;;;;1015455;29;1010;-28
2022/02/25 02:04:22;;;;;;;;;;;;;;;;;;1015389;29;895;-28
2022/02/25 02:04:52;;;;;;;;;;;;;;;;;;1015434;29;1919;-28
2022/02/25 02:05:22;;;;;;;;;;;;;;;;;;1015405;29;813;-28
2022/02/25 02:05:53;;;;;;;;;;;;;;;;;;1015471;29;1014;-28
2022/02/25 02:06:24;;;;;;;;;;;;;;;;;;1015315;29;971;-28
2022/02/25 02:06:54;;;;;;;;;;;;;;;;;;1015560;29;947;-28
2022/02/25 02:07:24;;;;;;;;;;;;;;;;;;1015219;29;1355;-28
2022/02/25 02:07:55;;;;;;;;;;;;;;;;;;1015388;29;880;-28
2022/02/25 02:08:25;;;;;;;;;;;;;;;;;;1015334;29;943;-28
2022/02/25 02:08:55;;;;;;;;;;;;;;;;;;1014762;29;1072;-28
2022/02/25 02:09:26;;;;;;;;;;;;;;;;;;1015636;29;969;-28
2022/02/25 02:09:56;;;;;;;;;;;;;;;;;;1015100;29;900;-28
2022/02/25 02:10:26;;;;;;;;;;;;;;;;;;1015568;29;970;-28
2022/02/25 02:10:57;;;;;;;;;;;;;;;;;;1015163;29;1207;-28
2022/02/25 02:11:28;;;;;;;;;;;;;;;;;;1015493;29;935;-28
2022/02/25 02:11:59;;;;;;;;;;;;;;;;;;1015121;29;1203;-28
2022/02/25 02:12:29;;;;;;;;;;;;;;;;;;1014895;29;1034;-28
2022/02/25 02:12:59;;;;;;;;;;;;;;;;;;1011210;29;998;-28
2022/02/25 02:13:30;;;;;;;;;;;;;;;;;;1011135;29;896;-28
2022/02/25 02:14:02;;;;;;;;;;;;;;;;;;1015108;29;1116;-28
2022/02/25 02:14:33;;;;;;;;;;;;;;;;;;1014878;29;984;-28
2022/02/25 02:15:04;;;;;;;;;;;;;;;;;;1015416;29;1044;-28
2022/02/25 02:15:35;;;;;;;;;;;;;;;;;;1015531;29;924;-28
2022/02/25 02:16:05;;;;;;;;;;;;;;;;;;1014708;29;800;-28
2022/02/25 02:16:35;;;;;;;;;;;;;;;;;;1015396;29;980;-28
2022/02/25 02:17:08;;;;;;;;;;;;;;;;;;1015322;29;970;-28
2022/02/25 02:17:38;;;;;;;;;;;;;;;;;;1015373;29;913;-28
2022/02/25 02:18:08;;;;;;;;;;;;;;;;;;1015101;29;999;-28
2022/02/25 02:18:39;;;;;;;;;;;;;;;;;;1015601;29;1041;-28
2022/02/25 02:19:09;;;;;;;;;;;;;;;;;;1014941;29;959;-28
2022/02/25 02:19:39;;;;;;;;;;;;;;;;;;1015315;29;982;-28
2022/02/25 02:20:10;;;;;;;;;;;;;;;;;;1015474;29;962;-28
2022/02/25 02:20:40;;;;;;;;;;;;;;;;;;1015155;29;934;-28
2022/02/25 02:21:11;;;;;;;;;;;;;;;;;;1015552;29;913;-28
2022/02/25 02:21:46;;;;;;;;;;;;;;;;;;1015217;29;896;-28
2022/02/25 02:22:17;;;;;;;;;;;;;;;;;;1015624;29;967;-28
2022/02/25 02:22:47;;;;;;;;;;;;;;;;;;1015253;29;955;-28
2022/02/25 02:23:17;;;;;;;;;;;;;;;;;;1015078;29;879;-28
2022/02/25 02:23:48;;;;;;;;;;;;;;;;;;1014679;29;1079;-28
2022/02/25 02:24:20;;;;;;;;;;;;;;;;;;1015141;29;919;-28
2022/02/25 02:24:50;;;;;;;;;;;;;;;;;;1015208;29;1977;-28
2022/02/25 02:25:21;;;;;;;;;;;;;;;;;;1015131;29;955;-28
2022/02/25 02:25:51;;;;;;;;;;;;;;;;;;1015435;29;943;-28
2022/02/25 02:26:21;;;;;;;;;;;;;;;;;;1015209;29;915;-28
2022/02/25 02:26:52;;;;;;;;;;;;;;;;;;1015448;29;816;-28
2022/02/25 02:28:17;;;;;;;;;;;;;;;;;;1015072;29;958;-28
2022/02/25 02:28:20;;;;;;;;;;;;;;;;;;1014984;29;1122;-28
2022/02/25 02:28:51;;;;;;;;;;;;;;;;;;1015330;29;970;-28
2022/02/25 02:29:22;;;;;;;;;;;;;;;;;;1015434;29;1395;-28
2022/02/25 02:29:52;;;;;;;;;;;;;;;;;;1015029;29;1039;-27
2022/02/25 02:30:22;;;;;;;;;;;;;;;;;;1015533;29;796;-27
2022/02/25 02:30:53;;;;;;;;;;;;;;;;;;1014569;29;923;-27
2022/02/25 02:31:24;;;;;;;;;;;;;;;;;;1015335;29;832;-28
2022/02/25 02:31:54;;;;;;;;;;;;;;;;;;1015493;29;1056;-28
2022/02/25 02:32:24;;;;;;;;;;;;;;;;;;1015187;29;805;-28
2022/02/25 02:32:55;;;;;;;;;;;;;;;;;;1015474;29;1049;-28
2022/02/25 02:33:25;;;;;;;;;;;;;;;;;;1015105;29;864;-27
2022/02/25 02:33:56;;;;;;;;;;;;;;;;;;1015382;29;1073;-27
2022/02/25 02:34:26;;;;;;;;;;;;;;;;;;1015163;29;892;-27
2022/02/25 02:34:57;;;;;;;;;;;;;;;;;;1015368;29;1095;-27
2022/02/25 02:35:27;;;;;;;;;;;;;;;;;;1015215;29;933;-27
2022/02/25 02:35:57;;;;;;;;;;;;;;;;;;1015413;29;931;-27
2022/02/25 02:36:28;;;;;;;;;;;;;;;;;;1015364;29;991;-27
2022/02/25 02:36:58;;;;;;;;;;;;;;;;;;1014991;29;963;-27
2022/02/25 02:37:28;;;;;;;;;;;;;;;;;;1014632;29;984;-27
2022/02/25 02:37:59;;;;;;;;;;;;;;;;;;1014844;29;840;-27
2022/02/25 02:38:29;;;;;;;;;;;;;;;;;;1014967;29;1651;-28
2022/02/25 02:39:00;;;;;;;;;;;;;;;;;;1015036;29;959;-28
2022/02/25 02:39:30;;;;;;;;;;;;;;;;;;1018201;29;1065;-27
2022/02/25 02:40:01;;;;;;;;;;;;;;;;;;1018666;29;1014;-27
2022/02/25 02:40:31;;;;;;;;;;;;;;;;;;1014855;29;943;-28
2022/02/25 02:41:01;;;;;;;;;;;;;;;;;;1015070;29;1371;-27
2022/02/25 02:41:32;;;;;;;;;;;;;;;;;;1014978;29;556;-27
2022/02/25 02:42:03;;;;;;;;;;;;;;;;;;1018852;29;1885;-27
2022/02/25 02:42:33;;;;;;;;;;;;;;;;;;1019032;29;1141;-28
2022/02/25 02:43:06;;;;;;;;;;;;;;;;;;1019308;29;1017;-27
2022/02/25 02:43:36;;;;;;;;;;;;;;;;;;1019244;29;941;-27
2022/02/25 02:44:06;;;;;;;;;;;;;;;;;;1019140;29;900;-27
2022/02/25 02:44:37;;;;;;;;;;;;;;;;;;1019179;29;1915;-28
2022/02/25 02:45:09;;;;;;;;;;;;;;;;;;1019079;29;955;-28
2022/02/25 02:45:39;;;;;;;;;;;;;;;;;;1018587;29;963;-27
2022/02/25 02:46:12;;;;;;;;;;;;;;;;;;1019062;29;1007;-27
2022/02/25 02:46:42;;;;;;;;;;;;;;;;;;1019297;29;991;-27
2022/02/25 02:47:12;;;;;;;;;;;;;;;;;;1019177;29;836;-28
2022/02/25 02:47:43;;;;;;;;;;;;;;;;;;1019077;29;990;-27
2022/02/25 02:48:13;;;;;;;;;;;;;;;;;;1019205;29;988;-28
2022/02/25 02:48:43;;;;;;;;;;;;;;;;;;1019005;29;939;-28
2022/02/25 02:49:14;;;;;;;;;;;;;;;;;;1019414;29;947;-27
2022/02/25 02:49:44;;;;;;;;;;;;;;;;;;1018925;29;896;-27
2022/02/25 02:50:15;;;;;;;;;;;;;;;;;;1019331;29;1108;-27
2022/02/25 02:50:45;;;;;;;;;;;;;;;;;;1018849;29;940;-27
2022/02/25 02:51:16;;;;;;;;;;;;;;;;;;1019508;29;803;-27
2022/02/25 02:51:47;;;;;;;;;;;;;;;;;;1019059;29;967;-28
2022/02/25 02:52:17;;;;;;;;;;;;;;;;;;1019152;29;871;-27
2022/02/25 02:52:48;;;;;;;;;;;;;;;;;;1019146;29;886;-27
2022/02/25 02:53:18;;;;;;;;;;;;;;;;;;1018547;29;978;-27
2022/02/25 02:53:48;;;;;;;;;;;;;;;;;;1019169;29;956;-27
2022/02/25 02:54:19;;;;;;;;;;;;;;;;;;1018966;29;919;-27
2022/02/25 02:54:49;;;;;;;;;;;;;;;;;;1019098;29;1065;-27
2022/02/25 02:55:19;;;;;;;;;;;;;;;;;;1019028;29;955;-27
2022/02/25 02:55:50;;;;;;;;;;;;;;;;;;1019182;29;823;-27
2022/02/25 02:56:20;;;;;;;;;;;;;;;;;;1019075;29;893;-27
2022/02/25 02:56:50;;;;;;;;;;;;;;;;;;1019099;29;800;-27
2022/02/25 02:57:22;;;;;;;;;;;;;;;;;;1019061;29;919;-28
2022/02/25 02:57:53;;;;;;;;;;;;;;;;;;1019089;29;946;-28
2022/02/25 02:58:23;;;;;;;;;;;;;;;;;;1019372;29;963;-28
2022/02/25 02:58:56;;;;;;;;;;;;;;;;;;1018727;29;1632;-28
2022/02/25 02:59:27;;;;;;;;;;;;;;;;;;1019350;29;892;-28
2022/02/25 02:59:57;;;;;;;;;;;;;;;;;;1019064;29;1053;-28
2022/02/25 03:00:27;;;;;;;;;;;;;;;;;;1018516;29;887;-28
2022/02/25 03:00:58;;;;;;;;;;;;;;;;;;1019191;29;907;-28
2022/02/25 03:01:29;;;;;;;;;;;;;;;;;;1018953;29;998;-27
2022/02/25 03:01:59;;;;;;;;;;;;;;;;;;1019271;29;1070;-28
2022/02/25 03:02:30;;;;;;;;;;;;;;;;;;1019018;29;989;-28
2022/02/25 03:03:00;;;;;;;;;;;;;;;;;;1019176;29;899;-27
2022/02/25 03:03:31;;;;;;;;;;;;;;;;;;1019076;29;856;-27
2022/02/25 03:04:01;;;;;;;;;;;;;;;;;;1019068;29;895;-28
2022/02/25 03:04:31;;;;;;;;;;;;;;;;;;1019212;29;1907;-28
2022/02/25 03:05:02;;;;;;;;;;;;;;;;;;1018926;29;956;-28
2022/02/25 03:05:34;;;;;;;;;;;;;;;;;;1019257;29;1019;-27
2022/02/25 03:06:04;;;;;;;;;;;;;;;;;;1018961;29;839;-28
2022/02/25 03:06:34;;;;;;;;;;;;;;;;;;1019173;29;1038;-28
2022/02/25 03:07:05;;;;;;;;;;;;;;;;;;1018748;29;1021;-28
2022/02/25 03:07:35;;;;;;;;;;;;;;;;;;1019313;29;1307;-28
2022/02/25 03:08:06;;;;;;;;;;;;;;;;;;1018298;29;937;-27
2022/02/25 03:08:36;;;;;;;;;;;;;;;;;;1019207;29;886;-28
2022/02/25 03:09:07;;;;;;;;;;;;;;;;;;1019051;29;927;-27
2022/02/25 03:09:37;;;;;;;;;;;;;;;;;;1019101;29;824;-28
2022/02/25 03:10:10;;;;;;;;;;;;;;;;;;1019216;29;1082;-28
2022/02/25 03:10:41;;;;;;;;;;;;;;;;;;1018805;29;1313;-28
2022/02/25 03:11:13;;;;;;;;;;;;;;;;;;1019155;29;1705;-27
2022/02/25 03:11:43;;;;;;;;;;;;;;;;;;1019072;29;914;-27
2022/02/25 03:12:14;;;;;;;;;;;;;;;;;;1019085;29;914;-28
2022/02/25 03:12:44;;;;;;;;;;;;;;;;;;1019294;29;899;-28
2022/02/25 03:13:15;;;;;;;;;;;;;;;;;;1018776;29;875;-27
2022/02/25 03:13:45;;;;;;;;;;;;;;;;;;1019306;29;960;-27
2022/02/25 03:14:16;;;;;;;;;;;;;;;;;;1018942;29;869;-27
2022/02/25 03:14:46;;;;;;;;;;;;;;;;;;1018149;29;1110;-27
2022/02/25 03:15:17;;;;;;;;;;;;;;;;;;1014433;29;1063;-27
2022/02/25 03:15:47;;;;;;;;;;;;;;;;;;1014794;29;1168;-28
2022/02/25 03:16:17;;;;;;;;;;;;;;;;;;1014772;29;910;-28
2022/02/25 03:16:48;;;;;;;;;;;;;;;;;;1014922;29;952;-28
2022/02/25 03:17:18;;;;;;;;;;;;;;;;;;1014798;29;819;-27
2022/02/25 03:17:48;;;;;;;;;;;;;;;;;;1014651;29;816;-27
2022/02/25 03:18:19;;;;;;;;;;;;;;;;;;1014793;29;1070;-27
2022/02/25 03:18:49;;;;;;;;;;;;;;;;;;1014663;29;954;-27
2022/02/25 03:19:20;;;;;;;;;;;;;;;;;;1014919;29;815;-27
2022/02/25 03:19:51;;;;;;;;;;;;;;;;;;1015077;29;937;-27
2022/02/25 03:20:24;;;;;;;;;;;;;;;;;;1015032;29;911;-28
2022/02/25 03:20:56;;;;;;;;;;;;;;;;;;1015300;29;893;-28
2022/02/25 03:21:26;;;;;;;;;;;;;;;;;;1015013;29;831;-27
2022/02/25 03:21:56;;;;;;;;;;;;;;;;;;1015225;29;907;-27
2022/02/25 03:22:27;;;;;;;;;;;;;;;;;;1014960;29;915;-27
2022/02/25 03:22:58;;;;;;;;;;;;;;;;;;1014685;29;899;-28
2022/02/25 03:23:28;;;;;;;;;;;;;;;;;;1015069;29;977;-28
2022/02/25 03:23:58;;;;;;;;;;;;;;;;;;1015002;29;958;-28
2022/02/25 03:24:29;;;;;;;;;;;;;;;;;;1015274;29;1059;-27
2022/02/25 03:25:00;;;;;;;;;;;;;;;;;;1014947;29;1907;-27
2022/02/25 03:25:31;;;;;;;;;;;;;;;;;;1015200;29;1078;-27
2022/02/25 03:26:01;;;;;;;;;;;;;;;;;;1014961;29;910;-28
2022/02/25 03:26:32;;;;;;;;;;;;;;;;;;1015298;29;992;-28
2022/02/25 03:27:02;;;;;;;;;;;;;;;;;;1014918;29;839;-27
2022/02/25 03:27:32;;;;;;;;;;;;;;;;;;1015223;29;800;-28
2022/02/25 03:28:03;;;;;;;;;;;;;;;;;;1014743;29;1085;-28
2022/02/25 03:28:34;;;;;;;;;;;;;;;;;;1015132;29;916;-27
2022/02/25 03:29:04;;;;;;;;;;;;;;;;;;1015156;29;896;-27
2022/02/25 03:29:34;;;;;;;;;;;;;;;;;;1015009;29;911;-27
2022/02/25 03:30:05;;;;;;;;;;;;;;;;;;1014656;29;917;-27
2022/02/25 03:30:36;;;;;;;;;;;;;;;;;;1014456;29;1265;-28
2022/02/25 03:31:06;;;;;;;;;;;;;;;;;;1014939;29;962;-27
2022/02/25 03:31:36;;;;;;;;;;;;;;;;;;1014689;29;978;-27
2022/02/25 03:32:07;;;;;;;;;;;;;;;;;;1014640;29;774;-27
2022/02/25 03:32:38;;;;;;;;;;;;;;;;;;1015185;29;909;-28
2022/02/25 03:33:08;;;;;;;;;;;;;;;;;;1014686;29;970;-27
2022/02/25 03:33:38;;;;;;;;;;;;;;;;;;1015252;29;925;-28
2022/02/25 03:34:09;;;;;;;;;;;;;;;;;;1015019;29;903;-28
2022/02/25 03:34:39;;;;;;;;;;;;;;;;;;1015038;29;1143;-27
2022/02/25 03:35:11;;;;;;;;;;;;;;;;;;1015026;29;982;-28